Seavoyager — 9HUM8 — position and weather

sailwx.info

Track history (hours):
 
Tides and Currents Weather Stations Pressure Air Temp Water Temp Dewpoint Dewpoint Depression Visibility Wind Speed Wind Dir Waves Ship Positions

Seavoyager

Last reported at 2017-Jun-23 09:56 UTC. Time now 2017-Jun-28 12:27 UTC.
Position N 01°14' E 103°59'.

Length 273 m; draft 12.7 m.

Type: Ship (hazmat cat A). MMSI: 256439000.

Date/timePositionNaut miles runAvg speedWind from/ knotsBaromVisibWave heightAir tempDewpointWater temp
2017-Jun-23 09:56N 01°14' E 103°59'613.1
2017-Jun-23 09:30N 01°12' E 103°53'612.2
2017-Jun-23 09:00N 01°10' E 103°48'713.2
2017-Jun-23 08:30N 01°05' E 103°43'612.3
2017-Jun-23 08:00N 01°04' E 103°37'713.3
2017-Jun-23 07:30N 01°07' E 103°32'612.2
2017-Jun-23 07:00N 01°14' E 103°32'2 4.4
2017-Jun-23 06:30N 01°15' E 103°34'0 0.2
2017-Jun-23 05:54N 01°15' E 103°34'0 0.1
2017-Jun-23 05:12N 01°15' E 103°34'0 0.0
2017-Jun-23 04:51N 01°15' E 103°34'0 0.0
2017-Jun-23 04:24N 01°15' E 103°34'0 0.0
2017-Jun-23 03:54N 01°15' E 103°34'0 0.0
2017-Jun-23 03:30N 01°15' E 103°34'0 0.0
2017-Jun-23 02:45N 01°15' E 103°34'0 0.0
2017-Jun-23 02:03N 01°15' E 103°34'0 0.0
2017-Jun-23 01:39N 01°15' E 103°34'0 0.1
2017-Jun-23 01:21N 01°15' E 103°34'0 0.2
2017-Jun-23 00:45N 01°15' E 103°34'0 0.2
2017-Jun-22 23:27N 01°15' E 103°33'0 0.2
2017-Jun-22 22:57N 01°15' E 103°33'0 0.1
2017-Jun-22 22:30N 01°15' E 103°33'0 0.0
2017-Jun-22 21:33N 01°15' E 103°33'0 0.0
2017-Jun-22 21:27N 01°15' E 103°33'0 0.0
2017-Jun-22 21:00N 01°15' E 103°33'0 0.2
2017-Jun-22 20:27N 01°15' E 103°33'0 0.3
2017-Jun-22 20:00N 01°15' E 103°33'0 0.1
2017-Jun-22 18:12N 01°15' E 103°34'0 0.1
2017-Jun-22 17:48N 01°15' E 103°34'0 0.1
2017-Jun-22 17:30N 01°15' E 103°34'0 0.0
2017-Jun-22 16:57N 01°15' E 103°34'0 0.0
2017-Jun-22 16:30N 01°15' E 103°34'0 0.1
2017-Jun-22 15:54N 01°15' E 103°34'0 0.0
2017-Jun-22 15:30N 01°15' E 103°34'0 0.1
2017-Jun-22 15:00N 01°15' E 103°34'0 0.1
2017-Jun-22 14:30N 01°15' E 103°34'0 0.1
2017-Jun-22 13:09N 01°15' E 103°34'0 0.0
2017-Jun-22 12:57N 01°15' E 103°34'0 0.0
2017-Jun-22 12:30N 01°15' E 103°34'0 0.2
2017-Jun-22 11:00N 01°15' E 103°33'0 0.1
2017-Jun-22 10:09N 01°15' E 103°33'0 0.1
2017-Jun-22 10:00N 01°15' E 103°33'0 0.1
2017-Jun-22 09:09N 01°15' E 103°33'0 0.1
2017-Jun-22 08:44N 01°15' E 103°33'0 0.3
2017-Jun-22 08:30N 01°15' E 103°33'0 0.2
2017-Jun-22 08:00N 01°15' E 103°33'0 1.0
2017-Jun-22 07:30N 01°14' E 103°33'1 2.8
2017-Jun-22 07:00N 01°14' E 103°32'2 4.7
2017-Jun-22 06:30N 01°12' E 103°30'1 0.6
2017-Jun-22 04:54N 01°11' E 103°29'0 0.7
2017-Jun-22 04:21N 01°11' E 103°29'1 2.2
2017-Jun-22 04:00N 01°11' E 103°28'6612.3
2017-Jun-21 22:38N 01°46' E 102°32'214.7
2017-Jun-21 22:30N 01°46' E 102°30'1114.7
2017-Jun-21 21:47N 01°51' E 102°20'  
Track history (hours):
 
Tides and Currents Weather Stations Pressure Air Temp Water Temp Dewpoint Dewpoint Depression Visibility Wind Speed Wind Dir Waves Ship Positions

Seavoyager

Last reported at 2017-Jun-23 09:56 UTC. Time now 2017-Jun-28 12:27 UTC.
Position N 01°14' E 103°59'.

Length 273 m; draft 12.7 m.

Type: Ship (hazmat cat A). MMSI: 256439000.

Date/timePositionNaut miles runAvg speedWind from/ knotsBaromVisibWave heightAir tempDewpointWater temp
2017-Jun-23 09:56N 01°14' E 103°59'613.1
2017-Jun-23 09:30N 01°12' E 103°53'612.2
2017-Jun-23 09:00N 01°10' E 103°48'713.2
2017-Jun-23 08:30N 01°05' E 103°43'612.3
2017-Jun-23 08:00N 01°04' E 103°37'713.3
2017-Jun-23 07:30N 01°07' E 103°32'612.2
2017-Jun-23 07:00N 01°14' E 103°32'2 4.4
2017-Jun-23 06:30N 01°15' E 103°34'0 0.2
2017-Jun-23 05:54N 01°15' E 103°34'0 0.1
2017-Jun-23 05:12N 01°15' E 103°34'0 0.0
2017-Jun-23 04:51N 01°15' E 103°34'0 0.0
2017-Jun-23 04:24N 01°15' E 103°34'0 0.0
2017-Jun-23 03:54N 01°15' E 103°34'0 0.0
2017-Jun-23 03:30N 01°15' E 103°34'0 0.0
2017-Jun-23 02:45N 01°15' E 103°34'0 0.0
2017-Jun-23 02:03N 01°15' E 103°34'0 0.0
2017-Jun-23 01:39N 01°15' E 103°34'0 0.1
2017-Jun-23 01:21N 01°15' E 103°34'0 0.2
2017-Jun-23 00:45N 01°15' E 103°34'0 0.2
2017-Jun-22 23:27N 01°15' E 103°33'0 0.2
2017-Jun-22 22:57N 01°15' E 103°33'0 0.1
2017-Jun-22 22:30N 01°15' E 103°33'0 0.0
2017-Jun-22 21:33N 01°15' E 103°33'0 0.0
2017-Jun-22 21:27N 01°15' E 103°33'0 0.0
2017-Jun-22 21:00N 01°15' E 103°33'0 0.2
2017-Jun-22 20:27N 01°15' E 103°33'0 0.3
2017-Jun-22 20:00N 01°15' E 103°33'0 0.1
2017-Jun-22 18:12N 01°15' E 103°34'0 0.1
2017-Jun-22 17:48N 01°15' E 103°34'0 0.1
2017-Jun-22 17:30N 01°15' E 103°34'0 0.0
2017-Jun-22 16:57N 01°15' E 103°34'0 0.0
2017-Jun-22 16:30N 01°15' E 103°34'0 0.1
2017-Jun-22 15:54N 01°15' E 103°34'0 0.0
2017-Jun-22 15:30N 01°15' E 103°34'0 0.1
2017-Jun-22 15:00N 01°15' E 103°34'0 0.1
2017-Jun-22 14:30N 01°15' E 103°34'0 0.1
2017-Jun-22 13:09N 01°15' E 103°34'0 0.0
2017-Jun-22 12:57N 01°15' E 103°34'0 0.0
2017-Jun-22 12:30N 01°15' E 103°34'0 0.2
2017-Jun-22 11:00N 01°15' E 103°33'0 0.1
2017-Jun-22 10:09N 01°15' E 103°33'0 0.1
2017-Jun-22 10:00N 01°15' E 103°33'0 0.1
2017-Jun-22 09:09N 01°15' E 103°33'0 0.1
2017-Jun-22 08:44N 01°15' E 103°33'0 0.3
2017-Jun-22 08:30N 01°15' E 103°33'0 0.2
2017-Jun-22 08:00N 01°15' E 103°33'0 1.0
2017-Jun-22 07:30N 01°14' E 103°33'1 2.8
2017-Jun-22 07:00N 01°14' E 103°32'2 4.7
2017-Jun-22 06:30N 01°12' E 103°30'1 0.6
2017-Jun-22 04:54N 01°11' E 103°29'0 0.7
2017-Jun-22 04:21N 01°11' E 103°29'1 2.2
2017-Jun-22 04:00N 01°11' E 103°28'6612.3
2017-Jun-21 22:38N 01°46' E 102°32'214.7
2017-Jun-21 22:30N 01°46' E 102°30'1114.7
2017-Jun-21 21:47N 01°51' E 102°20'  

Dump ship's entire track history